Onoway, Canada
Current Conditions -  °F | °C
As of 8:00 AM on Monday 24 Nov 2014 (Local Time) from CWSE Reporting Station
Few Clouds Few Clouds  
Wind Chill: 22°   Ceiling: Unl
Heat Index: 30°   Visibility: 15mi
Dew Point: 25°   Wind: 8mph
Humidity: 82%   Direction: 270°W
Pressure: 29.94"   Gusts: NA
Location:  53.7°N, 114.18°W
Report Text: CWSE 241500Z 27007KT 15SM FEW039 FEW079 M01/M04 A2994 RMK SLP175 T10121039 WSI/SWOB
Loading
Personal Weather Stations






























Interactive Weather Map New forecast layout! Learn more

10-Day Weather Forecast

Advertisements
Track Severe Weather on mobile